Mackinaw City, MI (49701)

12:54 AM EDT on March 26, 2017 (GMT -0400)
Mackinac Bridge | | Change Station
Active Advisory: Winter Weather Advisory

Elev 587 ft 45.79 °N, 84.73 °W | Updated 8 seconds ago

Overcast
Overcast
32.6 °F
Feels Like 25 °F
N
9.0
Wind Variable Wind from North
Gusts 20.0 mph

Today
High -- | Low -- °F
--% Chance of Precip.
Yesterday
High -- | Low -- °F
Precip. -- in
Pressure 30.24 in
Visibility 10.0 miles
Clouds Mostly Cloudy 1800 ft
Overcast 4000 ft
Windchill 25 °F
Dew Point 27 °F
Humidity 81%
Rainfall Not available.
Snow Depth Not available.
7:29 AM 7:59 PM
Waning Crescent, 5% visible
METAR KMCD 260435Z AUTO 10017G32KT 10SM BKN018 OVC040 00/M04 A3024 RMK AO2 T10011041
Pressure 30.24 in
Visibility 10.0 miles
Clouds Mostly Cloudy 1800 ft
Overcast 4000 ft
Windchill 25 °F
Dew Point 27 °F
Humidity 81%
Rainfall Not available.
Snow Depth Not available.
7:29 AM 7:59 PM
Waning Crescent, 5% visible
METAR KMCD 260435Z AUTO 10017G32KT 10SM BKN018 OVC040 00/M04 A3024 RMK AO2 T10011041

Get Your Daily Forecast Email!

Thanks for signing up!

Be on the lookout for a verification email in your inbox.

You'll start receiving severe weather alerts in your inbox..

×

10-Day Weather Forecast

Almanac

Astronomy

Mar. 26, 2017 Rise Set
Actual Time
Civil Twilight
Nautical Twilight
Astronomical Twilight
Moon
Length of Visible Light
Length of Day
Tomorrow will be .
, % of the Moon is Illuminated

Today's Extremes

State Highs State Lows

Community

WunderPhotos

Upload Photos

1,962,540 photos uploaded!

WunderBlog® & News

Nearby

Air Quality

  Air Quality AQ Index Pollutant
Not available.

Snow Depth

Station Depth Elevation

Earthquake Activity

City Distance Mag. Time & Date
Minimum magnitude displayed is 2.5.

Earthquake Activity

City Distance Mag. Time & Date
Minimum magnitude displayed is 2.5.

Coastal Water Temperatures

Place Temperature

Stations

Nearby Weather Stations

Station Location Temp. Windchill Dew Point Humidity Wind Precip. Elev Updated Type
                   

Watches & Warnings

Winter Weather Advisory
Issued: 10:19 PM EDT Mar. 25, 2017 – National Weather Service

... Winter Weather Advisory remains in effect until 8 am EDT
Sunday...

A Winter Weather Advisory remains in effect until 8 am EDT
Sunday.

* Expect freezing rain to continue... diminishing around 8 am
Sunday.

* The greatest amount of ice accumulation will occur between 2
am and 8 am Sunday.

* Additional ice accumulations of 2/10 of an inch are expected.

* The ice will result in difficult travel conditions.

Precautionary/preparedness actions...